Lyman — WDD4170 — position and weather

sailwx.info

Track history (hours):
 
Tides and Currents Weather Stations Pressure Air Temp Water Temp Dewpoint Dewpoint Depression Visibility Wind Speed Wind Dir Waves Ship Positions

Lyman

Owner: G.T. 102, New Haven, CT. More information available from US FCC via Universal Licensing System and Coast Guard Vessel Documentation Center.

Last reported at 2018-Jun-20 19:31 UTC. Time now 2018-Jun-21 18:05 UTC.
Position N 40°45' W 073°57'.

; draft 4.9 m.

Type: Towing. MMSI: 367141180.

Date/timePositionNaut miles runAvg speedWind from/ knotsBaromVisibWave heightAir tempDewpointWater temp
2018-Jun-20 19:31N 40°45' W 073°57'011.4
2018-Jun-20 19:29N 40°45' W 073°58'4 8.4
2018-Jun-20 19:00N 40°42' W 074°01'4 7.4
2018-Jun-20 18:30N 40°46' W 074°01'0 0.1
2018-Jun-20 13:58N 40°45' W 074°01'2 4.8
2018-Jun-20 13:30N 40°43' W 074°01'2 4.0
2018-Jun-20 13:00N 40°41' W 074°02'1 2.8
2018-Jun-20 12:30N 40°40' W 074°03'1 2.2
2018-Jun-20 12:00N 40°41' W 074°04'0 0.0
2018-Jun-20 11:30N 40°41' W 074°04'0 0.0
2018-Jun-20 11:00N 40°41' W 074°04'0 0.0
2018-Jun-20 10:30N 40°41' W 074°04'0 0.0
2018-Jun-20 10:01N 40°41' W 074°04'0 1.0
2018-Jun-20 09:30N 40°41' W 074°04'3 6.4
2018-Jun-20 09:00N 40°37' W 074°03'1 2.0
2018-Jun-20 08:30N 40°36' W 074°03'4 8.6
2018-Jun-20 08:00N 40°32' W 074°01'6 9.0
2018-Jun-20 07:22N 40°29' W 073°55'41 9.8
2018-Jun-20 03:08N 39°48' W 073°59'210.5
2018-Jun-20 02:58N 39°46' W 073°60'510.1
2018-Jun-20 02:29N 39°42' W 074°01'510.1
2018-Jun-20 02:00N 39°37' W 074°03'5 9.9
2018-Jun-20 01:30N 39°33' W 074°06'7 9.8
2018-Jun-20 00:48N 39°27' W 074°11'3 9.8
2018-Jun-20 00:30N 39°25' W 074°14'5 9.6
2018-Jun-20 00:00N 39°22' W 074°18'  
2018-Jun-17 16:11N 32°46' W 079°53'2 8.0
2018-Jun-17 15:59N 32°47' W 079°55'3 6.5
2018-Jun-17 15:30N 32°50' W 079°56'  
2018-Jun-15 09:16N 32°48' W 079°55'1 3.3
2018-Jun-15 09:00N 32°48' W 079°55'0 0.2
2018-Jun-15 08:29N 32°48' W 079°56'0 0.1
2018-Jun-15 06:12N 32°48' W 079°56'0 0.0
2018-Jun-15 05:57N 32°48' W 079°56'0 0.0
2018-Jun-15 04:18N 32°48' W 079°56'0 0.0
2018-Jun-15 04:00N 32°48' W 079°56'0 0.0
2018-Jun-15 03:21N 32°48' W 079°56'0 0.0
2018-Jun-15 02:51N 32°48' W 079°56'0 0.0
2018-Jun-15 02:21N 32°48' W 079°56'0 0.0
2018-Jun-15 02:00N 32°48' W 079°56'0 0.0
2018-Jun-15 01:30N 32°48' W 079°56'0 0.0
2018-Jun-15 01:00N 32°48' W 079°56'0 0.0
2018-Jun-15 00:30N 32°48' W 079°56'0 0.0
2018-Jun-15 00:00N 32°48' W 079°56'0 0.0
2018-Jun-14 23:30N 32°48' W 079°56'0 0.0
2018-Jun-14 23:00N 32°48' W 079°56'0 0.0
2018-Jun-14 22:30N 32°48' W 079°56'0 0.0
2018-Jun-14 22:00N 32°48' W 079°56'0 0.0
2018-Jun-14 21:27N 32°48' W 079°56'0 0.0
2018-Jun-14 20:57N 32°48' W 079°56'0 0.0
2018-Jun-14 20:27N 32°48' W 079°56'0 0.0
2018-Jun-14 19:57N 32°48' W 079°56'0 0.0
2018-Jun-14 19:27N 32°48' W 079°56'0 0.0
2018-Jun-14 18:00N 32°48' W 079°56'0 0.0
2018-Jun-14 17:09N 32°48' W 079°56'0 0.0
2018-Jun-14 12:54N 32°48' W 079°56'0 0.0
2018-Jun-14 12:27N 32°48' W 079°56'0 0.0
2018-Jun-14 11:54N 32°48' W 079°56'0 0.0
2018-Jun-14 11:24N 32°48' W 079°56'0 0.0
2018-Jun-14 10:48N 32°48' W 079°56'0 0.0
2018-Jun-14 10:27N 32°48' W 079°56'0 0.0
2018-Jun-14 09:51N 32°48' W 079°56'0 0.0
2018-Jun-14 09:31N 32°48' W 079°56'0 0.0
2018-Jun-14 08:33N 32°48' W 079°56'0 0.0
2018-Jun-14 08:30N 32°48' W 079°56'0 0.0
2018-Jun-14 05:38N 32°48' W 079°56'0 0.0
2018-Jun-14 05:31N 32°48' W 079°56'0 0.0
2018-Jun-14 05:00N 32°48' W 079°56'0 0.0
2018-Jun-14 04:30N 32°48' W 079°56'0 0.0
2018-Jun-14 04:01N 32°48' W 079°56'0 0.0
2018-Jun-14 03:29N 32°48' W 079°56'0 0.0
2018-Jun-14 02:59N 32°48' W 079°56'0 0.0
2018-Jun-14 02:30N 32°48' W 079°56'0 0.1
2018-Jun-14 02:00N 32°48' W 079°56'2 4.4
2018-Jun-14 01:30N 32°46' W 079°54'1 1.3
2018-Jun-14 00:59N 32°46' W 079°53'1 2.2
2018-Jun-14 00:29N 32°45' W 079°52'  
Track history (hours):
 
Tides and Currents Weather Stations Pressure Air Temp Water Temp Dewpoint Dewpoint Depression Visibility Wind Speed Wind Dir Waves Ship Positions

Lyman

Owner: G.T. 102, New Haven, CT. More information available from US FCC via Universal Licensing System and Coast Guard Vessel Documentation Center.

Last reported at 2018-Jun-20 19:31 UTC. Time now 2018-Jun-21 18:05 UTC.
Position N 40°45' W 073°57'.

; draft 4.9 m.

Type: Towing. MMSI: 367141180.

Date/timePositionNaut miles runAvg speedWind from/ knotsBaromVisibWave heightAir tempDewpointWater temp
2018-Jun-20 19:31N 40°45' W 073°57'011.4
2018-Jun-20 19:29N 40°45' W 073°58'4 8.4
2018-Jun-20 19:00N 40°42' W 074°01'4 7.4
2018-Jun-20 18:30N 40°46' W 074°01'0 0.1
2018-Jun-20 13:58N 40°45' W 074°01'2 4.8
2018-Jun-20 13:30N 40°43' W 074°01'2 4.0
2018-Jun-20 13:00N 40°41' W 074°02'1 2.8
2018-Jun-20 12:30N 40°40' W 074°03'1 2.2
2018-Jun-20 12:00N 40°41' W 074°04'0 0.0
2018-Jun-20 11:30N 40°41' W 074°04'0 0.0
2018-Jun-20 11:00N 40°41' W 074°04'0 0.0
2018-Jun-20 10:30N 40°41' W 074°04'0 0.0
2018-Jun-20 10:01N 40°41' W 074°04'0 1.0
2018-Jun-20 09:30N 40°41' W 074°04'3 6.4
2018-Jun-20 09:00N 40°37' W 074°03'1 2.0
2018-Jun-20 08:30N 40°36' W 074°03'4 8.6
2018-Jun-20 08:00N 40°32' W 074°01'6 9.0
2018-Jun-20 07:22N 40°29' W 073°55'41 9.8
2018-Jun-20 03:08N 39°48' W 073°59'210.5
2018-Jun-20 02:58N 39°46' W 073°60'510.1
2018-Jun-20 02:29N 39°42' W 074°01'510.1
2018-Jun-20 02:00N 39°37' W 074°03'5 9.9
2018-Jun-20 01:30N 39°33' W 074°06'7 9.8
2018-Jun-20 00:48N 39°27' W 074°11'3 9.8
2018-Jun-20 00:30N 39°25' W 074°14'5 9.6
2018-Jun-20 00:00N 39°22' W 074°18'  
2018-Jun-17 16:11N 32°46' W 079°53'2 8.0
2018-Jun-17 15:59N 32°47' W 079°55'3 6.5
2018-Jun-17 15:30N 32°50' W 079°56'  
2018-Jun-15 09:16N 32°48' W 079°55'1 3.3
2018-Jun-15 09:00N 32°48' W 079°55'0 0.2
2018-Jun-15 08:29N 32°48' W 079°56'0 0.1
2018-Jun-15 06:12N 32°48' W 079°56'0 0.0
2018-Jun-15 05:57N 32°48' W 079°56'0 0.0
2018-Jun-15 04:18N 32°48' W 079°56'0 0.0
2018-Jun-15 04:00N 32°48' W 079°56'0 0.0
2018-Jun-15 03:21N 32°48' W 079°56'0 0.0
2018-Jun-15 02:51N 32°48' W 079°56'0 0.0
2018-Jun-15 02:21N 32°48' W 079°56'0 0.0
2018-Jun-15 02:00N 32°48' W 079°56'0 0.0
2018-Jun-15 01:30N 32°48' W 079°56'0 0.0
2018-Jun-15 01:00N 32°48' W 079°56'0 0.0
2018-Jun-15 00:30N 32°48' W 079°56'0 0.0
2018-Jun-15 00:00N 32°48' W 079°56'0 0.0
2018-Jun-14 23:30N 32°48' W 079°56'0 0.0
2018-Jun-14 23:00N 32°48' W 079°56'0 0.0
2018-Jun-14 22:30N 32°48' W 079°56'0 0.0
2018-Jun-14 22:00N 32°48' W 079°56'0 0.0
2018-Jun-14 21:27N 32°48' W 079°56'0 0.0
2018-Jun-14 20:57N 32°48' W 079°56'0 0.0
2018-Jun-14 20:27N 32°48' W 079°56'0 0.0
2018-Jun-14 19:57N 32°48' W 079°56'0 0.0
2018-Jun-14 19:27N 32°48' W 079°56'0 0.0
2018-Jun-14 18:00N 32°48' W 079°56'0 0.0
2018-Jun-14 17:09N 32°48' W 079°56'0 0.0
2018-Jun-14 12:54N 32°48' W 079°56'0 0.0
2018-Jun-14 12:27N 32°48' W 079°56'0 0.0
2018-Jun-14 11:54N 32°48' W 079°56'0 0.0
2018-Jun-14 11:24N 32°48' W 079°56'0 0.0
2018-Jun-14 10:48N 32°48' W 079°56'0 0.0
2018-Jun-14 10:27N 32°48' W 079°56'0 0.0
2018-Jun-14 09:51N 32°48' W 079°56'0 0.0
2018-Jun-14 09:31N 32°48' W 079°56'0 0.0
2018-Jun-14 08:33N 32°48' W 079°56'0 0.0
2018-Jun-14 08:30N 32°48' W 079°56'0 0.0
2018-Jun-14 05:38N 32°48' W 079°56'0 0.0
2018-Jun-14 05:31N 32°48' W 079°56'0 0.0
2018-Jun-14 05:00N 32°48' W 079°56'0 0.0
2018-Jun-14 04:30N 32°48' W 079°56'0 0.0
2018-Jun-14 04:01N 32°48' W 079°56'0 0.0
2018-Jun-14 03:29N 32°48' W 079°56'0 0.0
2018-Jun-14 02:59N 32°48' W 079°56'0 0.0
2018-Jun-14 02:30N 32°48' W 079°56'0 0.1
2018-Jun-14 02:00N 32°48' W 079°56'2 4.4
2018-Jun-14 01:30N 32°46' W 079°54'1 1.3
2018-Jun-14 00:59N 32°46' W 079°53'1 2.2
2018-Jun-14 00:29N 32°45' W 079°52'  

Dump ship's entire track history